createdAt,value
2023-01-08T00:02:26.839Z,15.57
2023-01-08T00:04:53.783Z,20.50
2023-01-08T00:07:20.875Z,16.17
2023-01-08T00:09:50.712Z,18.67
2023-01-08T00:12:17.820Z,17.07
2023-01-08T00:14:44.788Z,19.70
2023-01-08T00:17:11.861Z,18.63
2023-01-08T00:19:41.687Z,18.63
2023-01-08T00:22:08.746Z,17.20
2023-01-08T00:24:35.802Z,18.13
2023-01-08T00:27:02.846Z,19.20
2023-01-08T00:29:29.938Z,22.63
2023-01-08T00:31:56.974Z,26.20
2023-01-08T00:34:24.053Z,23.87
2023-01-08T00:36:50.974Z,17.23
2023-01-08T00:39:17.969Z,16.57
2023-01-08T00:41:45.885Z,19.97
2023-01-08T00:44:12.951Z,20.10
2023-01-08T00:46:39.887Z,15.43
2023-01-08T00:49:06.887Z,20.10
2023-01-08T00:51:33.804Z,18.43
2023-01-08T00:54:00.840Z,18.30
2023-01-08T00:56:27.854Z,17.70
2023-01-08T00:58:55.957Z,16.93
2023-01-08T01:01:23.708Z,22.63
2023-01-08T01:03:50.850Z,20.57
2023-01-08T01:06:17.977Z,18.40
2023-01-08T01:08:45.075Z,17.13
2023-01-08T01:11:19.814Z,22.33
2023-01-08T01:13:47.245Z,22.47
2023-01-08T01:16:14.370Z,30.63
2023-01-08T01:18:41.341Z,20.73
2023-01-08T01:21:27.275Z,20.67
2023-01-08T01:23:56.327Z,17.63
2023-01-08T01:26:24.110Z,19.20
2023-01-08T01:28:52.697Z,19.77
2023-01-08T01:31:20.700Z,22.77
2023-01-08T01:33:47.835Z,16.80
2023-01-08T01:36:16.716Z,21.67
2023-01-08T01:38:48.809Z,29.17
2023-01-08T01:41:23.060Z,23.80
2023-01-08T01:43:50.235Z,22.70
2023-01-08T01:46:23.966Z,17.37
2023-01-08T01:48:55.057Z,18.33
2023-01-08T01:51:22.359Z,22.73
2023-01-08T01:53:50.023Z,18.30
2023-01-08T01:56:17.288Z,18.63
2023-01-08T01:58:44.181Z,16.53
2023-01-08T02:01:11.550Z,17.80
2023-01-08T02:03:40.285Z,21.87
2023-01-08T02:06:17.059Z,20.70
2023-01-08T02:08:57.404Z,15.30
2023-01-08T02:11:35.831Z,18.87
2023-01-08T02:14:10.551Z,17.37
2023-01-08T02:16:53.300Z,17.73
2023-01-08T02:19:41.123Z,20.10
2023-01-08T02:22:26.590Z,17.20
2023-01-08T02:24:59.861Z,20.43
2023-01-08T02:27:29.830Z,19.30
2023-01-08T02:29:58.248Z,22.03
2023-01-08T02:32:33.216Z,19.17
2023-01-08T02:35:00.296Z,30.70
2023-01-08T02:37:27.456Z,20.03
2023-01-08T02:39:57.109Z,19.07
2023-01-08T02:42:33.178Z,17.80
2023-01-08T02:45:25.247Z,16.10
2023-01-08T02:47:57.507Z,20.30
2023-01-08T02:50:41.867Z,23.10
2023-01-08T02:53:16.884Z,24.00
2023-01-08T02:55:49.785Z,24.27
2023-01-08T02:58:17.640Z,25.93
2023-01-08T03:00:46.934Z,20.47
2023-01-08T03:03:21.814Z,25.33
2023-01-08T03:05:57.908Z,17.47
2023-01-08T03:08:26.153Z,17.63
2023-01-08T03:11:05.499Z,21.47
2023-01-08T03:13:45.957Z,18.83
2023-01-08T03:16:22.590Z,22.50
2023-01-08T03:18:58.779Z,29.47
2023-01-08T03:21:26.700Z,23.63
2023-01-08T03:23:53.755Z,23.07
2023-01-08T03:26:24.831Z,17.37
2023-01-08T03:28:54.326Z,16.20
2023-01-08T03:31:23.262Z,17.93
2023-01-08T03:33:50.713Z,22.07
2023-01-08T03:36:22.457Z,18.80
2023-01-08T03:38:59.306Z,18.87
2023-01-08T03:41:29.653Z,22.03
2023-01-08T03:43:57.169Z,19.87
2023-01-08T03:46:31.651Z,23.43
2023-01-08T03:49:00.488Z,23.60
2023-01-08T03:51:27.641Z,18.50
2023-01-08T03:53:58.964Z,21.77
2023-01-08T03:56:26.222Z,23.53
2023-01-08T03:58:53.160Z,24.37
2023-01-08T04:01:20.332Z,23.37
2023-01-08T04:03:47.270Z,24.10
2023-01-08T04:06:14.270Z,24.60
2023-01-08T04:08:41.217Z,26.53
2023-01-08T04:11:08.161Z,23.93
2023-01-08T04:13:35.034Z,23.40
2023-01-08T04:16:02.125Z,17.77
2023-01-08T04:18:29.092Z,19.00
2023-01-08T04:20:56.102Z,20.57
2023-01-08T04:23:23.145Z,37.90
2023-01-08T04:25:50.143Z,22.23
2023-01-08T04:28:17.020Z,21.80
2023-01-08T04:30:44.255Z,21.17
2023-01-08T04:33:11.254Z,20.10
2023-01-08T04:35:38.202Z,23.37
2023-01-08T04:38:05.444Z,19.30
2023-01-08T04:40:35.392Z,24.07
2023-01-08T04:43:02.371Z,19.03
2023-01-08T04:45:29.382Z,20.50
2023-01-08T04:47:59.748Z,24.53
2023-01-08T04:50:27.745Z,20.47
2023-01-08T04:52:54.649Z,22.10
2023-01-08T04:55:21.722Z,26.37
2023-01-08T04:57:48.618Z,24.63
2023-01-08T05:00:16.095Z,28.27
2023-01-08T05:02:43.205Z,24.20
2023-01-08T05:05:10.380Z,27.50
2023-01-08T05:07:37.421Z,26.77
2023-01-08T05:10:05.213Z,23.50
2023-01-08T05:12:32.132Z,24.57
2023-01-08T05:14:59.137Z,23.13
2023-01-08T05:17:26.057Z,25.70
2023-01-08T05:19:53.003Z,30.20
2023-01-08T05:22:19.944Z,23.47
2023-01-08T05:24:46.953Z,23.60
2023-01-08T05:27:13.884Z,23.90
2023-01-08T05:29:40.777Z,25.80
2023-01-08T05:32:15.647Z,28.17
2023-01-08T05:34:42.920Z,24.17
2023-01-08T05:37:09.864Z,25.10
2023-01-08T05:39:43.620Z,32.97
2023-01-08T05:42:10.557Z,27.07
2023-01-08T05:44:37.463Z,29.67
2023-01-08T05:47:13.364Z,26.47
2023-01-08T05:49:40.288Z,30.67
2023-01-08T05:52:07.655Z,29.00
2023-01-08T05:54:40.771Z,30.50
2023-01-08T05:57:07.683Z,41.87
2023-01-08T05:59:34.571Z,25.03
2023-01-08T06:02:01.557Z,21.10
2023-01-08T06:04:28.539Z,22.37
2023-01-08T06:06:55.496Z,22.47
2023-01-08T06:09:22.447Z,25.53
2023-01-08T06:11:49.418Z,24.43
2023-01-08T06:14:17.188Z,26.77
2023-01-08T06:16:44.215Z,26.47
2023-01-08T06:19:12.223Z,24.03
2023-01-08T06:21:39.262Z,26.50
2023-01-08T06:24:06.407Z,30.57
2023-01-08T06:26:33.390Z,44.57
2023-01-08T06:29:00.913Z,34.33
2023-01-08T06:31:27.862Z,23.57
2023-01-08T06:33:54.903Z,33.97
2023-01-08T06:36:21.896Z,23.73
2023-01-08T06:38:55.906Z,31.77
2023-01-08T06:41:23.062Z,36.97
2023-01-08T06:43:49.993Z,27.60
2023-01-08T06:46:16.985Z,29.47
2023-01-08T06:48:44.032Z,25.10
2023-01-08T06:51:11.098Z,22.37
2023-01-08T06:53:38.128Z,19.10
2023-01-08T06:56:07.591Z,19.47
2023-01-08T06:58:34.547Z,27.33
2023-01-08T07:01:01.429Z,24.97
2023-01-08T07:03:28.518Z,20.13
2023-01-08T07:05:56.062Z,22.53
2023-01-08T07:08:23.101Z,23.20
2023-01-08T07:10:50.076Z,23.40
2023-01-08T07:13:17.061Z,23.80
2023-01-08T07:15:44.275Z,17.33
2023-01-08T07:18:12.782Z,18.33
2023-01-08T07:20:39.960Z,14.93
2023-01-08T07:23:10.341Z,14.77
2023-01-08T07:25:38.341Z,14.13
2023-01-08T07:28:05.504Z,13.93
2023-01-08T07:30:32.438Z,16.00
2023-01-08T07:33:00.592Z,14.30
2023-01-08T07:35:27.924Z,17.47
2023-01-08T07:37:54.902Z,14.07
2023-01-08T07:40:22.079Z,17.20
2023-01-08T07:42:49.205Z,19.47
2023-01-08T07:45:16.297Z,14.17
2023-01-08T07:47:43.231Z,15.77
2023-01-08T07:50:10.800Z,17.40
2023-01-08T07:52:37.784Z,16.90
2023-01-08T07:55:05.095Z,18.40
2023-01-08T07:57:32.039Z,17.93
2023-01-08T07:59:58.970Z,15.60
2023-01-08T08:02:26.272Z,13.60
2023-01-08T08:04:53.430Z,18.20
2023-01-08T08:07:20.369Z,16.83
2023-01-08T08:09:50.363Z,17.60
2023-01-08T08:12:17.331Z,18.80
2023-01-08T08:14:44.248Z,20.07
2023-01-08T08:17:11.218Z,18.13
2023-01-08T08:19:38.189Z,21.70
2023-01-08T08:22:05.169Z,22.27
2023-01-08T08:24:32.170Z,20.80
2023-01-08T08:26:59.063Z,20.73
2023-01-08T08:29:26.090Z,17.53
2023-01-08T08:32:27.046Z,18.70
2023-01-08T08:34:54.004Z,24.67
2023-01-08T08:37:39.269Z,18.27
2023-01-08T08:40:06.832Z,24.73
2023-01-08T08:42:33.770Z,25.43
2023-01-08T08:45:19.173Z,19.30
2023-01-08T08:47:46.083Z,18.17
2023-01-08T08:50:12.979Z,20.30
2023-01-08T08:53:18.837Z,21.63
2023-01-08T08:55:45.811Z,18.97
2023-01-08T08:58:13.916Z,14.37
2023-01-08T09:00:42.423Z,16.77
2023-01-08T09:03:16.332Z,16.20
2023-01-08T09:05:43.611Z,16.27
2023-01-08T09:08:11.606Z,15.17
2023-01-08T09:10:41.620Z,17.73
2023-01-08T09:13:09.073Z,15.20
2023-01-08T09:15:37.545Z,16.80
2023-01-08T09:18:05.054Z,16.43
2023-01-08T09:20:32.220Z,16.27
2023-01-08T09:23:00.437Z,16.27
2023-01-08T09:25:27.821Z,15.97
2023-01-08T09:28:03.003Z,16.93
2023-01-08T09:30:30.351Z,16.23
2023-01-08T09:33:02.883Z,16.10
2023-01-08T09:35:30.822Z,17.93
2023-01-08T09:37:58.179Z,15.30
2023-01-08T09:40:39.700Z,16.90
2023-01-08T09:43:08.252Z,18.17
2023-01-08T09:45:39.757Z,17.43
2023-01-08T09:48:12.763Z,14.13
2023-01-08T09:50:40.110Z,16.43
2023-01-08T09:53:16.119Z,16.27
2023-01-08T09:55:43.901Z,17.90
2023-01-08T09:58:35.546Z,18.53
2023-01-08T10:01:03.870Z,15.17
2023-01-08T10:03:52.576Z,18.00
2023-01-08T10:06:19.865Z,22.90
2023-01-08T10:08:46.977Z,20.50
2023-01-08T10:11:15.725Z,24.27
2023-01-08T10:13:48.194Z,17.27
2023-01-08T10:16:30.967Z,16.20
2023-01-08T10:18:59.953Z,16.27
2023-01-08T10:21:31.636Z,21.20
2023-01-08T10:23:59.054Z,24.63
2023-01-08T10:26:32.464Z,20.57
2023-01-08T10:29:18.880Z,19.67
2023-01-08T10:31:58.618Z,20.20
2023-01-08T10:34:41.303Z,21.27
2023-01-08T10:37:29.896Z,32.60
2023-01-08T10:40:08.022Z,15.13
2023-01-08T10:42:36.902Z,20.80
2023-01-08T10:45:11.353Z,18.40
2023-01-08T10:47:39.424Z,19.73
2023-01-08T10:50:21.481Z,17.67
2023-01-08T10:53:07.180Z,20.07
2023-01-08T10:55:39.774Z,19.90
2023-01-08T10:58:09.633Z,15.80
2023-01-08T11:00:37.639Z,18.63
2023-01-08T11:03:07.199Z,17.47
2023-01-08T11:05:39.909Z,16.63
2023-01-08T11:08:21.283Z,19.43
2023-01-08T11:11:00.435Z,19.70
2023-01-08T11:13:28.401Z,19.17
2023-01-08T11:16:07.952Z,17.53
2023-01-08T11:18:47.952Z,17.70
2023-01-08T11:21:27.153Z,15.27
2023-01-08T11:24:18.681Z,18.57
2023-01-08T11:26:56.486Z,20.93
2023-01-08T11:29:45.815Z,18.00
2023-01-08T11:32:15.788Z,12.70
2023-01-08T11:35:01.162Z,14.13
2023-01-08T11:37:35.747Z,12.70
2023-01-08T11:40:02.831Z,14.20
2023-01-08T11:43:07.184Z,14.53
2023-01-08T11:46:02.940Z,15.77
2023-01-08T11:48:47.937Z,19.17
2023-01-08T11:51:54.538Z,15.93
2023-01-08T11:54:24.183Z,14.83
2023-01-08T11:57:19.061Z,15.07
2023-01-08T12:00:24.160Z,12.43
2023-01-08T12:02:55.776Z,9.60
2023-01-08T12:05:22.919Z,8.60
2023-01-08T12:08:18.140Z,6.63
2023-01-08T12:11:06.243Z,5.90
2023-01-08T12:14:01.214Z,4.57
2023-01-08T12:16:58.635Z,3.20
2023-01-08T12:20:03.702Z,3.13
2023-01-08T12:22:51.442Z,3.07
2023-01-08T12:25:23.319Z,5.60
2023-01-08T12:28:00.339Z,2.93
2023-01-08T12:31:07.861Z,4.23
2023-01-08T12:33:50.041Z,4.30
2023-01-08T12:36:28.770Z,5.87
2023-01-08T12:39:21.648Z,4.10
2023-01-08T12:41:50.139Z,3.80
2023-01-08T12:44:24.466Z,9.67
2023-01-08T12:46:55.683Z,3.63
2023-01-08T12:49:30.609Z,2.67
2023-01-08T12:52:18.216Z,2.43
2023-01-08T12:54:57.131Z,2.83
2023-01-08T12:57:49.201Z,3.13
2023-01-08T13:00:27.194Z,3.90
2023-01-08T13:03:01.994Z,2.47
2023-01-08T13:05:36.478Z,2.63
2023-01-08T13:08:07.269Z,3.87
2023-01-08T13:11:00.969Z,2.23
2023-01-08T13:13:29.729Z,2.00
2023-01-08T13:16:14.496Z,5.10
2023-01-08T13:18:51.964Z,2.40
2023-01-08T13:21:27.357Z,2.93
2023-01-08T13:24:05.941Z,3.13
2023-01-08T13:26:35.645Z,2.70
2023-01-08T13:29:42.786Z,1.70
2023-01-08T13:32:30.929Z,2.07
2023-01-08T13:35:08.321Z,4.80
2023-01-08T13:37:35.359Z,2.10
2023-01-08T13:40:04.096Z,2.50
2023-01-08T13:42:31.568Z,2.03
2023-01-08T13:45:01.352Z,5.20
2023-01-08T13:47:33.050Z,9.03
2023-01-08T13:50:04.530Z,2.63
2023-01-08T13:52:44.889Z,9.87
2023-01-08T13:55:52.517Z,5.67
2023-01-08T13:58:26.253Z,14.80
2023-01-08T14:00:55.349Z,7.23
2023-01-08T14:03:44.498Z,18.30
2023-01-08T14:06:20.142Z,2.77
2023-01-08T14:08:51.652Z,5.00
2023-01-08T14:11:20.970Z,3.40
2023-01-08T14:13:49.250Z,3.17
2023-01-08T14:16:17.204Z,4.40
2023-01-08T14:18:46.054Z,7.53
2023-01-08T14:21:14.881Z,7.57
2023-01-08T14:23:46.326Z,6.83
2023-01-08T14:26:38.824Z,5.07
2023-01-08T14:29:15.287Z,6.70
2023-01-08T14:31:54.013Z,6.37
2023-01-08T14:34:23.582Z,7.40
2023-01-08T14:36:52.391Z,8.00
2023-01-08T14:39:32.257Z,9.57
2023-01-08T14:42:27.495Z,9.17
2023-01-08T14:45:07.580Z,9.80
2023-01-08T14:47:46.380Z,8.10
2023-01-08T14:50:27.895Z,9.10
2023-01-08T14:53:16.795Z,10.63
2023-01-08T14:55:48.418Z,12.33
2023-01-08T14:58:28.502Z,11.43
2023-01-08T15:00:59.005Z,10.30
2023-01-08T15:03:39.246Z,10.27
2023-01-08T15:06:07.551Z,12.27
2023-01-08T15:08:37.449Z,10.33
2023-01-08T15:11:19.605Z,11.20
2023-01-08T15:13:48.320Z,11.13
2023-01-08T15:16:39.045Z,13.17
2023-01-08T15:19:11.928Z,11.93
2023-01-08T15:21:39.450Z,19.40
2023-01-08T15:24:07.861Z,14.80
2023-01-08T15:26:34.878Z,11.00
2023-01-08T15:29:06.586Z,13.43
2023-01-08T15:31:47.480Z,10.97
2023-01-08T15:34:16.823Z,12.97
2023-01-08T15:36:43.860Z,10.87
2023-01-08T15:39:10.984Z,15.43
2023-01-08T15:41:57.807Z,14.00
2023-01-08T15:44:27.510Z,11.33
2023-01-08T15:46:55.293Z,15.07
2023-01-08T15:49:22.552Z,20.20
2023-01-08T15:51:52.019Z,15.20
2023-01-08T15:54:20.775Z,12.30
2023-01-08T15:56:47.826Z,19.40
2023-01-08T15:59:15.366Z,20.97
2023-01-08T16:01:42.764Z,15.03
2023-01-08T16:04:09.736Z,11.37
2023-01-08T16:06:37.193Z,17.37
2023-01-08T16:09:04.340Z,15.07
2023-01-08T16:11:31.634Z,11.77
2023-01-08T16:13:58.629Z,11.97
2023-01-08T16:16:25.855Z,12.27
2023-01-08T16:18:52.817Z,13.10
2023-01-08T16:21:19.777Z,13.37
2023-01-08T16:23:46.984Z,12.17
2023-01-08T16:26:16.180Z,14.87
2023-01-08T16:28:43.533Z,11.00
2023-01-08T16:31:10.899Z,11.23
2023-01-08T16:33:38.128Z,13.13
2023-01-08T16:36:07.946Z,13.40
2023-01-08T16:38:36.109Z,11.30
2023-01-08T16:41:03.063Z,12.33
2023-01-08T16:43:31.832Z,11.87
2023-01-08T16:46:03.405Z,10.90
2023-01-08T16:48:31.150Z,10.87
2023-01-08T16:51:05.818Z,13.17
2023-01-08T16:53:33.436Z,12.63
2023-01-08T16:56:00.578Z,10.23
2023-01-08T16:58:27.607Z,11.83
2023-01-08T17:00:55.158Z,12.40
2023-01-08T17:03:23.404Z,9.50
2023-01-08T17:05:50.623Z,11.47
2023-01-08T17:08:19.960Z,10.13
2023-01-08T17:10:47.420Z,10.17
2023-01-08T17:13:14.594Z,8.03
2023-01-08T17:15:42.707Z,8.90
2023-01-08T17:18:09.668Z,7.53
2023-01-08T17:20:37.094Z,9.07
2023-01-08T17:23:04.402Z,10.90
2023-01-08T17:25:32.444Z,10.83
2023-01-08T17:27:59.493Z,10.03
2023-01-08T17:30:26.547Z,13.63
2023-01-08T17:32:53.480Z,12.10
2023-01-08T17:35:20.460Z,11.73
2023-01-08T17:37:48.472Z,12.30
2023-01-08T17:40:16.139Z,11.87
2023-01-08T17:42:44.417Z,9.10
2023-01-08T17:45:11.669Z,9.80
2023-01-08T17:47:39.222Z,14.73
2023-01-08T17:50:06.489Z,10.80
2023-01-08T17:52:34.478Z,11.80
2023-01-08T17:55:01.528Z,11.37
2023-01-08T17:57:33.983Z,9.20
2023-01-08T18:00:01.010Z,14.57
2023-01-08T18:02:28.316Z,15.60
2023-01-08T18:04:55.911Z,16.67
2023-01-08T18:07:24.101Z,14.77
2023-01-08T18:09:54.398Z,8.77
2023-01-08T18:12:21.637Z,11.77
2023-01-08T18:14:48.549Z,10.47
2023-01-08T18:17:15.818Z,20.23
2023-01-08T18:19:43.236Z,12.87
2023-01-08T18:22:10.929Z,11.43
2023-01-08T18:24:37.851Z,11.40
2023-01-08T18:27:05.165Z,14.67
2023-01-08T18:29:32.334Z,9.03
2023-01-08T18:31:59.511Z,12.80
2023-01-08T18:34:26.804Z,13.17
2023-01-08T18:36:53.861Z,10.63
2023-01-08T18:39:22.445Z,16.17
2023-01-08T18:42:08.089Z,9.80
2023-01-08T18:44:35.031Z,9.30
2023-01-08T18:47:02.094Z,10.77
2023-01-08T18:49:29.508Z,13.17
2023-01-08T18:51:56.588Z,10.97
2023-01-08T18:54:23.703Z,9.27
2023-01-08T18:56:51.339Z,14.27
2023-01-08T18:59:18.856Z,12.50
2023-01-08T19:01:46.039Z,11.23
2023-01-08T19:04:19.028Z,10.90
2023-01-08T19:06:46.424Z,11.77
2023-01-08T19:09:15.482Z,14.63
2023-01-08T19:11:42.917Z,12.07
2023-01-08T19:14:12.331Z,10.73
2023-01-08T19:16:40.172Z,11.67
2023-01-08T19:19:07.855Z,10.47
2023-01-08T19:21:34.886Z,10.70
2023-01-08T19:24:01.916Z,10.03
2023-01-08T19:26:28.923Z,11.77
2023-01-08T19:28:56.121Z,17.70
2023-01-08T19:31:23.221Z,10.53
2023-01-08T19:33:50.244Z,10.00
2023-01-08T19:36:19.685Z,12.10
2023-01-08T19:38:46.757Z,11.17
2023-01-08T19:41:32.636Z,11.60
2023-01-08T19:44:00.280Z,9.67
2023-01-08T19:46:28.381Z,13.90
2023-01-08T19:48:59.624Z,12.87
2023-01-08T19:51:27.716Z,10.60
2023-01-08T19:53:56.559Z,12.57
2023-01-08T19:56:23.817Z,12.80
2023-01-08T19:58:50.902Z,16.10
2023-01-08T20:01:20.713Z,15.13
2023-01-08T20:03:48.365Z,11.60
2023-01-08T20:06:19.876Z,11.87
2023-01-08T20:08:53.286Z,11.43
2023-01-08T20:11:22.438Z,10.43
2023-01-08T20:13:50.167Z,9.17
2023-01-08T20:16:19.173Z,13.87
2023-01-08T20:18:46.536Z,9.37
2023-01-08T20:21:16.820Z,11.00
2023-01-08T20:23:45.064Z,15.00
2023-01-08T20:26:16.032Z,12.20
2023-01-08T20:28:44.665Z,13.60
2023-01-08T20:31:16.976Z,14.30
2023-01-08T20:33:44.862Z,10.70
2023-01-08T20:36:18.211Z,12.40
2023-01-08T20:38:46.629Z,12.13
2023-01-08T20:41:13.756Z,14.77
2023-01-08T20:43:41.146Z,12.20
2023-01-08T20:46:13.966Z,15.33
2023-01-08T20:48:48.217Z,11.67
2023-01-08T20:51:16.352Z,15.10
2023-01-08T20:53:43.363Z,11.93
2023-01-08T20:56:12.660Z,13.13
2023-01-08T20:58:43.332Z,17.33
2023-01-08T21:01:13.330Z,12.70
2023-01-08T21:03:41.028Z,13.70
2023-01-08T21:06:16.276Z,13.53
2023-01-08T21:08:44.886Z,13.40
2023-01-08T21:11:13.173Z,13.47
2023-01-08T21:13:40.517Z,15.77
2023-01-08T21:16:22.054Z,14.17
2023-01-08T21:18:50.570Z,18.63
2023-01-08T21:21:28.693Z,27.57
2023-01-08T21:23:56.805Z,14.83
2023-01-08T21:26:24.733Z,13.63
2023-01-08T21:28:51.839Z,13.27
2023-01-08T21:31:25.962Z,14.27
2023-01-08T21:33:55.133Z,12.83
2023-01-08T21:36:26.424Z,13.27
2023-01-08T21:38:56.791Z,15.23
2023-01-08T21:41:45.335Z,14.70
2023-01-08T21:44:37.199Z,12.23
2023-01-08T21:47:07.260Z,14.23
2023-01-08T21:49:36.350Z,14.03
2023-01-08T21:52:22.950Z,12.27
2023-01-08T21:54:50.069Z,18.27
2023-01-08T21:57:18.418Z,17.00
2023-01-08T21:59:45.673Z,12.87
2023-01-08T22:02:18.095Z,13.53
2023-01-08T22:04:45.488Z,16.37
2023-01-08T22:07:12.712Z,14.33
2023-01-08T22:09:41.074Z,13.60
2023-01-08T22:12:08.302Z,13.53
2023-01-08T22:14:35.634Z,15.90
2023-01-08T22:17:04.220Z,14.33
2023-01-08T22:19:31.403Z,17.30
2023-01-08T22:21:58.415Z,14.87
2023-01-08T22:24:25.497Z,12.60
2023-01-08T22:26:52.579Z,11.83
2023-01-08T22:29:19.641Z,11.30
2023-01-08T22:31:46.670Z,13.03
2023-01-08T22:34:17.361Z,12.50
2023-01-08T22:36:50.467Z,13.40
2023-01-08T22:39:17.903Z,14.77
2023-01-08T22:41:45.191Z,14.00
2023-01-08T22:44:12.920Z,11.67
2023-01-08T22:46:40.177Z,17.10
2023-01-08T22:49:07.918Z,16.43
2023-01-08T22:51:34.837Z,14.97
2023-01-08T22:54:01.770Z,16.53
2023-01-08T22:56:28.964Z,15.30
2023-01-08T22:58:57.888Z,17.93
2023-01-08T23:01:27.524Z,19.93
2023-01-08T23:03:58.227Z,16.73
2023-01-08T23:06:27.439Z,16.13
2023-01-08T23:08:56.566Z,22.97
2023-01-08T23:11:25.060Z,16.73
2023-01-08T23:13:52.452Z,22.57
2023-01-08T23:16:24.180Z,23.40
2023-01-08T23:18:52.432Z,19.33
2023-01-08T23:21:22.038Z,17.57
2023-01-08T23:23:48.959Z,19.20
2023-01-08T23:26:19.569Z,18.93
2023-01-08T23:28:51.068Z,18.40
2023-01-08T23:31:21.332Z,18.87
2023-01-08T23:33:48.301Z,20.03
2023-01-08T23:36:18.512Z,18.17
2023-01-08T23:38:46.900Z,19.07
2023-01-08T23:41:14.409Z,20.53
2023-01-08T23:43:43.415Z,24.13
2023-01-08T23:46:10.753Z,20.57
2023-01-08T23:48:37.923Z,20.77
2023-01-08T23:51:05.076Z,20.23
2023-01-08T23:53:32.191Z,20.07
2023-01-08T23:55:59.313Z,20.07
2023-01-08T23:58:26.313Z,19.20
